createdAt,value
2018-12-22T00:01:09.800Z,7.60
2018-12-22T00:03:38.393Z,7.60
2018-12-22T00:06:07.053Z,7.60
2018-12-22T00:08:35.658Z,7.70
2018-12-22T00:11:05.025Z,7.70
2018-12-22T00:13:33.612Z,7.70
2018-12-22T00:16:02.285Z,7.70
2018-12-22T00:18:30.893Z,7.70
2018-12-22T00:20:59.529Z,7.70
2018-12-22T00:23:28.121Z,7.70
2018-12-22T00:25:56.746Z,7.70
2018-12-22T00:28:25.354Z,7.70
2018-12-22T00:30:53.997Z,7.70
2018-12-22T00:33:22.624Z,7.70
2018-12-22T00:35:51.275Z,7.70
2018-12-22T00:38:19.932Z,7.70
2018-12-22T00:40:48.550Z,7.70
2018-12-22T00:43:17.124Z,7.70
2018-12-22T00:45:45.785Z,7.70
2018-12-22T00:48:14.383Z,7.70
2018-12-22T00:50:42.978Z,7.70
2018-12-22T00:53:11.750Z,7.70
2018-12-22T00:55:40.368Z,7.80
2018-12-22T00:58:08.953Z,7.80
2018-12-22T01:00:37.562Z,7.80
2018-12-22T01:03:06.297Z,7.70
2018-12-22T01:05:34.972Z,7.70
2018-12-22T01:08:03.626Z,7.80
2018-12-22T01:10:32.367Z,7.70
2018-12-22T01:13:00.974Z,7.70
2018-12-22T01:15:29.567Z,7.70
2018-12-22T01:17:58.162Z,7.80
2018-12-22T01:20:26.832Z,7.70
2018-12-22T01:22:55.443Z,7.80
2018-12-22T01:25:24.129Z,7.80
2018-12-22T01:27:52.726Z,7.70
2018-12-22T01:30:21.303Z,7.70
2018-12-22T01:32:49.917Z,7.70
2018-12-22T01:35:18.506Z,7.70
2018-12-22T01:37:47.157Z,7.70
2018-12-22T01:40:15.859Z,7.70
2018-12-22T01:42:44.469Z,7.70
2018-12-22T01:45:13.086Z,7.70
2018-12-22T01:47:41.750Z,7.70
2018-12-22T01:50:10.429Z,7.70
2018-12-22T01:52:39.022Z,7.70
2018-12-22T01:55:07.923Z,7.60
2018-12-22T01:57:36.508Z,7.60
2018-12-22T02:00:06.167Z,7.60
2018-12-22T02:02:34.735Z,7.60
2018-12-22T02:05:03.516Z,7.60
2018-12-22T02:07:32.144Z,7.60
2018-12-22T02:10:00.801Z,7.60
2018-12-22T02:12:29.414Z,7.60
2018-12-22T02:14:58.030Z,7.50
2018-12-22T02:17:26.615Z,7.50
2018-12-22T02:19:55.250Z,7.50
2018-12-22T02:22:23.868Z,7.50
2018-12-22T02:24:52.519Z,7.50
2018-12-22T02:27:21.137Z,7.50
2018-12-22T02:29:49.764Z,7.50
2018-12-22T02:32:18.496Z,7.50
2018-12-22T02:34:47.169Z,7.50
2018-12-22T02:37:15.726Z,7.50
2018-12-22T02:39:44.339Z,7.50
2018-12-22T02:42:12.921Z,7.50
2018-12-22T02:44:41.567Z,7.50
2018-12-22T02:47:10.219Z,7.50
2018-12-22T02:49:38.858Z,7.50
2018-12-22T02:52:07.434Z,7.60
2018-12-22T02:54:36.051Z,7.60
2018-12-22T02:57:04.626Z,7.60
2018-12-22T02:59:33.373Z,7.60
2018-12-22T03:02:02.000Z,7.60
2018-12-22T03:04:30.628Z,7.60
2018-12-22T03:06:59.251Z,7.60
2018-12-22T03:09:27.893Z,7.60
2018-12-22T03:11:56.647Z,7.60
2018-12-22T03:14:25.247Z,7.60
2018-12-22T03:16:53.845Z,7.70
2018-12-22T03:19:22.445Z,7.60
2018-12-22T03:21:51.016Z,7.60
2018-12-22T03:24:19.626Z,7.60
2018-12-22T03:26:48.389Z,7.60
2018-12-22T03:29:17.014Z,7.50
2018-12-22T03:31:45.574Z,7.50
2018-12-22T03:34:14.212Z,7.50
2018-12-22T03:36:42.857Z,7.50
2018-12-22T03:39:11.474Z,7.50
2018-12-22T03:41:40.136Z,7.60
2018-12-22T03:44:08.780Z,7.60
2018-12-22T03:46:37.383Z,7.60
2018-12-22T03:49:06.121Z,7.60
2018-12-22T03:51:34.769Z,7.60
2018-12-22T03:54:03.521Z,7.60
2018-12-22T03:56:32.142Z,7.70
2018-12-22T03:59:00.749Z,7.70
2018-12-22T04:01:29.323Z,7.70
2018-12-22T04:03:57.982Z,7.80
2018-12-22T04:06:26.572Z,7.80
2018-12-22T04:08:55.178Z,7.90
2018-12-22T04:11:23.810Z,7.90
2018-12-22T04:13:52.435Z,8.00
2018-12-22T04:16:21.092Z,8.00
2018-12-22T04:18:49.692Z,8.00
2018-12-22T04:21:18.314Z,8.00
2018-12-22T04:23:46.928Z,8.00
2018-12-22T04:26:15.584Z,8.10
2018-12-22T04:28:44.191Z,8.00
2018-12-22T04:31:12.882Z,8.00
2018-12-22T04:33:41.485Z,8.00
2018-12-22T04:36:10.055Z,8.00
2018-12-22T04:38:38.688Z,8.00
2018-12-22T04:41:07.317Z,8.00
2018-12-22T04:43:35.983Z,8.00
2018-12-22T04:46:04.636Z,8.00
2018-12-22T04:48:33.222Z,8.00
2018-12-22T04:51:01.811Z,8.00
2018-12-22T04:53:30.543Z,7.90
2018-12-22T04:55:59.132Z,7.90
2018-12-22T04:58:27.681Z,7.80
2018-12-22T05:00:56.281Z,7.80
2018-12-22T05:03:24.929Z,7.80
2018-12-22T05:05:53.559Z,7.70
2018-12-22T05:08:22.172Z,7.70
2018-12-22T05:10:50.746Z,7.70
2018-12-22T05:13:19.473Z,7.70
2018-12-22T05:15:48.089Z,7.70
2018-12-22T05:18:16.664Z,7.70
2018-12-22T05:20:45.287Z,7.60
2018-12-22T05:23:13.884Z,7.60
2018-12-22T05:25:42.576Z,7.60
2018-12-22T05:28:11.251Z,7.60
2018-12-22T05:30:39.845Z,7.70
2018-12-22T05:33:08.519Z,7.70
2018-12-22T05:35:37.151Z,7.70
2018-12-22T05:38:05.770Z,7.70
2018-12-22T05:40:34.412Z,7.70
2018-12-22T05:43:03.036Z,7.70
2018-12-22T05:45:31.630Z,7.70
2018-12-22T05:48:00.319Z,7.70
2018-12-22T05:50:28.924Z,7.70
2018-12-22T05:52:57.491Z,7.70
2018-12-22T05:55:26.204Z,7.70
2018-12-22T05:57:54.854Z,7.70
2018-12-22T06:00:23.445Z,7.80
2018-12-22T06:02:52.091Z,7.80
2018-12-22T06:05:20.706Z,7.80
2018-12-22T06:07:49.295Z,7.80
2018-12-22T06:10:17.911Z,7.80
2018-12-22T06:12:46.530Z,7.80
2018-12-22T06:15:15.155Z,7.80
2018-12-22T06:17:43.751Z,7.80
2018-12-22T06:20:12.350Z,7.80
2018-12-22T06:22:40.945Z,7.90
2018-12-22T06:25:09.821Z,7.90
2018-12-22T06:27:38.391Z,7.80
2018-12-22T06:30:09.503Z,7.80
2018-12-22T06:32:37.708Z,7.80
2018-12-22T06:35:06.324Z,7.80
2018-12-22T06:37:35.041Z,7.80
2018-12-22T06:40:04.235Z,7.90
2018-12-22T06:42:32.962Z,7.90
2018-12-22T06:45:01.593Z,7.90
2018-12-22T06:47:30.209Z,7.90
2018-12-22T06:49:59.149Z,7.90
2018-12-22T06:52:27.746Z,7.90
2018-12-22T06:54:56.288Z,8.00
2018-12-22T06:57:24.925Z,7.90
2018-12-22T06:59:53.517Z,7.90
2018-12-22T07:02:22.074Z,7.90
2018-12-22T07:04:50.659Z,7.80
2018-12-22T07:07:19.292Z,7.80
2018-12-22T07:09:47.939Z,7.70
2018-12-22T07:12:16.551Z,7.60
2018-12-22T07:14:45.212Z,7.60
2018-12-22T07:17:13.812Z,7.60
2018-12-22T07:19:42.386Z,7.60
2018-12-22T07:22:11.144Z,7.60
2018-12-22T07:24:39.854Z,7.60
2018-12-22T07:27:08.427Z,7.50
2018-12-22T07:29:37.047Z,7.50
2018-12-22T07:32:05.776Z,7.50
2018-12-22T07:34:34.440Z,7.50
2018-12-22T07:37:03.222Z,7.50
2018-12-22T07:39:31.935Z,7.50
2018-12-22T07:42:00.517Z,7.50
2018-12-22T07:44:29.111Z,7.50
2018-12-22T07:46:57.710Z,7.50
2018-12-22T07:49:26.264Z,7.50
2018-12-22T07:51:54.834Z,7.50
2018-12-22T07:54:23.598Z,7.50
2018-12-22T07:56:52.219Z,7.50
2018-12-22T07:59:20.912Z,7.50
2018-12-22T08:01:49.495Z,7.40
2018-12-22T08:04:18.136Z,7.40
2018-12-22T08:06:46.728Z,7.40
2018-12-22T08:09:15.347Z,7.40
2018-12-22T08:11:44.002Z,7.30
2018-12-22T08:14:12.613Z,7.40
2018-12-22T08:16:41.197Z,7.40
2018-12-22T08:19:09.831Z,7.40
2018-12-22T08:21:38.521Z,7.40
2018-12-22T08:24:07.189Z,7.40
2018-12-22T08:26:35.769Z,7.40
2018-12-22T08:29:04.584Z,7.50
2018-12-22T08:31:33.335Z,7.50
2018-12-22T08:34:01.911Z,7.50
2018-12-22T08:36:30.530Z,7.50
2018-12-22T08:38:59.136Z,7.50
2018-12-22T08:41:27.729Z,7.50
2018-12-22T08:43:56.330Z,7.50
2018-12-22T08:46:24.983Z,7.50
2018-12-22T08:48:53.583Z,7.50
2018-12-22T08:51:22.248Z,7.50
2018-12-22T08:53:50.875Z,7.50
2018-12-22T08:56:19.541Z,7.50
2018-12-22T08:58:48.160Z,7.50
2018-12-22T09:01:16.897Z,7.50
2018-12-22T09:03:45.470Z,7.50
2018-12-22T09:06:14.062Z,7.50
2018-12-22T09:08:42.696Z,7.60
2018-12-22T09:11:11.346Z,7.60
2018-12-22T09:13:40.001Z,7.60
2018-12-22T09:16:08.655Z,7.60
2018-12-22T09:18:37.721Z,7.60
2018-12-22T09:21:06.315Z,7.70
2018-12-22T09:23:35.010Z,7.70
2018-12-22T09:26:03.621Z,7.70
2018-12-22T09:28:32.209Z,7.70
2018-12-22T09:31:01.171Z,7.70
2018-12-22T09:33:29.938Z,7.70
2018-12-22T09:35:58.754Z,7.70
2018-12-22T09:38:27.388Z,7.70
2018-12-22T09:40:56.045Z,7.70
2018-12-22T09:43:24.654Z,7.70
2018-12-22T09:45:53.267Z,7.80
2018-12-22T09:48:21.974Z,7.80
2018-12-22T09:50:50.665Z,7.90
2018-12-22T09:53:19.463Z,7.80
2018-12-22T09:55:48.269Z,7.90
2018-12-22T09:58:17.031Z,7.90
2018-12-22T10:00:45.708Z,7.90
2018-12-22T10:03:14.371Z,7.90
2018-12-22T10:05:43.895Z,7.90
2018-12-22T10:08:12.691Z,7.90
2018-12-22T10:10:41.267Z,7.90
2018-12-22T10:13:09.971Z,7.90
2018-12-22T10:15:38.753Z,8.00
2018-12-22T10:18:07.955Z,8.00
2018-12-22T10:20:36.689Z,8.00
2018-12-22T10:23:05.767Z,8.00
2018-12-22T10:25:34.475Z,8.10
2018-12-22T10:28:03.230Z,8.10
2018-12-22T10:30:31.873Z,8.10
2018-12-22T10:34:24.924Z,8.20
2018-12-22T10:36:53.490Z,8.30
2018-12-22T10:39:22.081Z,8.40
2018-12-22T10:41:50.702Z,8.50
2018-12-22T10:44:19.302Z,8.40
2018-12-22T10:46:47.940Z,8.40
2018-12-22T10:49:16.604Z,8.40
2018-12-22T10:51:45.299Z,8.30
2018-12-22T10:54:13.888Z,8.40
2018-12-22T10:56:42.597Z,8.30
2018-12-22T10:59:11.239Z,8.40
2018-12-22T11:01:39.872Z,8.30
2018-12-22T11:04:08.504Z,8.40
2018-12-22T11:06:37.320Z,8.40
2018-12-22T11:09:16.887Z,8.50
2018-12-22T11:11:46.357Z,8.50
2018-12-22T11:14:16.259Z,8.50
2018-12-22T11:16:44.987Z,8.50
2018-12-22T11:19:13.574Z,8.50
2018-12-22T11:21:42.287Z,8.50
2018-12-22T11:24:10.929Z,8.60
2018-12-22T11:26:39.498Z,8.70
2018-12-22T11:29:08.105Z,8.70
2018-12-22T11:31:36.705Z,8.70
2018-12-22T11:34:05.356Z,8.70
2018-12-22T11:36:33.971Z,8.70
2018-12-22T11:39:02.592Z,8.70
2018-12-22T11:41:31.215Z,8.70
2018-12-22T11:43:59.813Z,8.70
2018-12-22T11:46:28.464Z,8.80
2018-12-22T11:49:37.461Z,8.80
2018-12-22T11:52:06.218Z,8.90
2018-12-22T11:54:34.793Z,8.90
2018-12-22T11:57:03.478Z,9.00
2018-12-22T11:59:32.250Z,9.00
2018-12-22T12:02:09.330Z,9.00
2018-12-22T12:04:31.607Z,9.00
2018-12-22T12:07:00.208Z,9.00
2018-12-22T12:09:29.020Z,8.90
2018-12-22T12:11:57.714Z,8.90
2018-12-22T12:14:26.419Z,8.90
2018-12-22T12:17:15.232Z,8.80
2018-12-22T12:19:43.829Z,8.80
2018-12-22T12:22:12.559Z,8.70
2018-12-22T12:24:41.419Z,8.70
2018-12-22T12:27:10.213Z,8.70
2018-12-22T12:29:38.821Z,8.70
2018-12-22T12:32:07.426Z,8.70
2018-12-22T12:34:36.059Z,8.80
2018-12-22T12:37:04.679Z,8.80
2018-12-22T12:39:33.326Z,8.70
2018-12-22T12:42:01.980Z,8.70
2018-12-22T12:44:30.566Z,8.60
2018-12-22T12:46:59.255Z,8.60
2018-12-22T12:49:27.882Z,8.70
2018-12-22T12:51:56.499Z,8.80
2018-12-22T12:54:25.223Z,8.80
2018-12-22T12:56:56.036Z,8.80
2018-12-22T12:59:25.705Z,8.80
2018-12-22T13:02:00.923Z,8.80
2018-12-22T13:04:25.027Z,8.80
2018-12-22T13:06:53.636Z,8.80
2018-12-22T13:09:22.303Z,8.80
2018-12-22T13:11:52.557Z,8.80
2018-12-22T13:14:23.332Z,8.70
2018-12-22T13:16:51.958Z,8.70
2018-12-22T13:19:20.547Z,8.80
2018-12-22T13:21:52.795Z,8.80
2018-12-22T13:24:21.401Z,8.80
2018-12-22T13:26:50.036Z,8.80
2018-12-22T13:29:18.629Z,8.80
2018-12-22T13:31:47.528Z,8.90
2018-12-22T13:34:16.271Z,8.90
2018-12-22T13:36:44.862Z,8.80
2018-12-22T13:39:21.996Z,8.90
2018-12-22T13:41:50.590Z,8.90
2018-12-22T13:44:19.207Z,8.90
2018-12-22T13:46:47.858Z,8.80
2018-12-22T13:49:16.677Z,8.90
2018-12-22T13:51:46.323Z,8.80
2018-12-22T13:54:21.144Z,8.80
2018-12-22T13:56:49.759Z,8.80
2018-12-22T13:59:18.495Z,8.80
2018-12-22T14:01:51.921Z,8.70
2018-12-22T14:04:20.689Z,8.70
2018-12-22T14:06:49.416Z,8.70
2018-12-22T14:09:19.070Z,8.70
2018-12-22T14:11:47.624Z,8.70
2018-12-22T14:14:20.565Z,8.70
2018-12-22T14:17:01.219Z,8.60
2018-12-22T14:19:29.791Z,8.60
2018-12-22T14:21:58.561Z,8.50
2018-12-22T14:24:34.742Z,8.40
2018-12-22T14:27:03.381Z,8.30
2018-12-22T14:29:32.025Z,8.30
2018-12-22T14:32:00.672Z,8.30
2018-12-22T14:35:08.766Z,8.30
2018-12-22T14:37:37.390Z,8.40
2018-12-22T14:40:07.045Z,8.40
2018-12-22T14:42:35.634Z,8.40
2018-12-22T14:45:04.864Z,8.40
2018-12-22T14:47:33.551Z,8.40
2018-12-22T14:50:02.157Z,8.50
2018-12-22T14:52:30.780Z,8.50
2018-12-22T14:54:59.432Z,8.50
2018-12-22T14:57:30.177Z,8.50
2018-12-22T14:59:58.747Z,8.50
2018-12-22T15:02:35.166Z,8.40
2018-12-22T15:04:58.039Z,8.40
2018-12-22T15:07:26.627Z,8.40
2018-12-22T15:09:55.253Z,8.40
2018-12-22T15:12:23.863Z,8.40
2018-12-22T15:14:52.502Z,8.40
2018-12-22T15:17:21.109Z,8.40
2018-12-22T15:19:49.697Z,8.40
2018-12-22T15:22:18.265Z,8.40
2018-12-22T15:24:46.911Z,8.40
2018-12-22T15:27:15.493Z,8.40
2018-12-22T15:29:44.117Z,8.40
2018-12-22T15:32:12.722Z,8.30
2018-12-22T15:34:41.325Z,8.30
2018-12-22T15:37:10.069Z,8.30
2018-12-22T15:39:38.656Z,8.40
2018-12-22T15:42:07.256Z,8.40
2018-12-22T15:44:35.874Z,8.30
2018-12-22T15:47:04.523Z,8.30
2018-12-22T15:49:33.185Z,8.30
2018-12-22T15:52:01.791Z,8.30
2018-12-22T15:54:30.369Z,8.30
2018-12-22T15:56:58.993Z,8.40
2018-12-22T15:59:27.651Z,8.40
2018-12-22T16:01:56.248Z,8.40
2018-12-22T16:04:24.840Z,8.30
2018-12-22T16:06:53.447Z,8.40
2018-12-22T16:09:22.060Z,8.30
2018-12-22T16:11:50.718Z,8.40
2018-12-22T16:14:19.335Z,8.40
2018-12-22T16:16:48.064Z,8.30
2018-12-22T16:19:16.768Z,8.30
2018-12-22T16:21:45.402Z,8.20
2018-12-22T16:24:14.011Z,8.30
2018-12-22T16:26:42.669Z,8.30
2018-12-22T16:29:18.289Z,8.20
2018-12-22T16:31:46.897Z,8.20
2018-12-22T16:34:16.391Z,8.20
2018-12-22T16:36:45.002Z,8.20
2018-12-22T16:39:13.643Z,8.10
2018-12-22T16:41:42.443Z,8.10
2018-12-22T16:44:15.323Z,8.00
2018-12-22T16:46:44.106Z,8.00
2018-12-22T16:49:12.972Z,8.00
2018-12-22T16:51:41.573Z,7.90
2018-12-22T16:54:10.314Z,7.90
2018-12-22T16:56:38.876Z,7.90
2018-12-22T16:59:07.533Z,7.80
2018-12-22T17:01:44.395Z,7.80
2018-12-22T17:04:13.021Z,7.80
2018-12-22T17:06:42.615Z,7.80
2018-12-22T17:09:11.270Z,7.70
2018-12-22T17:11:39.866Z,7.70
2018-12-22T17:14:08.489Z,7.70
2018-12-22T17:16:37.248Z,7.70
2018-12-22T17:19:05.866Z,7.80
2018-12-22T17:21:46.298Z,7.80
2018-12-22T17:24:22.491Z,7.80
2018-12-22T17:26:51.086Z,7.80
2018-12-22T17:29:19.711Z,7.80
2018-12-22T17:31:48.317Z,7.80
2018-12-22T17:34:17.000Z,7.80
2018-12-22T17:36:45.752Z,7.90
2018-12-22T17:39:15.270Z,7.90
2018-12-22T17:41:45.031Z,7.90
2018-12-22T17:44:13.774Z,7.90
2018-12-22T17:46:42.419Z,7.90
2018-12-22T17:49:11.060Z,7.90
2018-12-22T17:51:39.834Z,8.00
2018-12-22T17:54:08.509Z,7.90
2018-12-22T17:56:37.112Z,7.90
2018-12-22T17:59:05.683Z,7.90
2018-12-22T18:01:34.318Z,7.90
2018-12-22T18:04:02.922Z,7.90
2018-12-22T18:06:31.546Z,7.90
2018-12-22T18:09:00.203Z,7.90
2018-12-22T18:11:28.766Z,7.90
2018-12-22T18:13:57.422Z,7.90
2018-12-22T18:16:26.010Z,7.90
2018-12-22T18:18:54.660Z,7.90
2018-12-22T18:21:23.263Z,7.90
2018-12-22T18:23:51.968Z,7.80
2018-12-22T18:26:20.600Z,7.80
2018-12-22T18:28:49.193Z,7.80
2018-12-22T18:31:17.854Z,7.80
2018-12-22T18:33:46.489Z,7.80
2018-12-22T18:36:15.145Z,7.80
2018-12-22T18:38:43.754Z,7.80
2018-12-22T18:41:12.411Z,7.70
2018-12-22T18:43:41.077Z,7.70
2018-12-22T18:46:09.782Z,7.70
2018-12-22T18:48:38.435Z,7.70
2018-12-22T18:51:07.031Z,7.70
2018-12-22T18:53:35.674Z,7.70
2018-12-22T18:56:04.308Z,7.70
2018-12-22T18:58:32.977Z,7.70
2018-12-22T19:01:01.628Z,7.70
2018-12-22T19:03:30.369Z,7.70
2018-12-22T19:05:58.975Z,7.70
2018-12-22T19:08:27.795Z,7.70
2018-12-22T19:11:00.485Z,7.60
2018-12-22T19:13:29.151Z,7.60
2018-12-22T19:15:57.754Z,7.60
2018-12-22T19:18:26.340Z,7.60
2018-12-22T19:20:55.126Z,7.60
2018-12-22T19:23:25.630Z,7.60
2018-12-22T19:25:54.479Z,7.60
2018-12-22T19:28:23.143Z,7.60
2018-12-22T19:30:51.761Z,7.50
2018-12-22T19:33:20.387Z,7.40
2018-12-22T19:35:49.083Z,7.40
2018-12-22T19:38:17.684Z,7.20
2018-12-22T19:40:46.724Z,7.10
2018-12-22T19:43:15.318Z,6.90
2018-12-22T19:45:43.944Z,6.80
2018-12-22T19:48:12.564Z,6.80
2018-12-22T19:50:41.195Z,6.80
2018-12-22T19:53:09.959Z,6.80
2018-12-22T19:55:38.596Z,6.90
2018-12-22T19:58:07.271Z,6.90
2018-12-22T20:00:35.839Z,6.90
2018-12-22T20:03:04.520Z,6.90
2018-12-22T20:05:33.135Z,6.90
2018-12-22T20:08:01.738Z,6.90
2018-12-22T20:10:30.422Z,6.90
2018-12-22T20:12:59.103Z,6.90
2018-12-22T20:15:27.836Z,6.90
2018-12-22T20:17:56.474Z,6.90
2018-12-22T20:20:25.085Z,6.90
2018-12-22T20:22:53.682Z,6.80
2018-12-22T20:25:22.328Z,6.80
2018-12-22T20:27:50.980Z,6.80
2018-12-22T20:30:19.613Z,6.80
2018-12-22T20:32:48.178Z,6.80
2018-12-22T20:35:16.895Z,6.80
2018-12-22T20:37:45.524Z,6.90
2018-12-22T20:40:14.113Z,6.90
2018-12-22T20:42:42.758Z,6.90
2018-12-22T20:45:11.371Z,6.90
2018-12-22T20:47:40.024Z,6.90
2018-12-22T20:50:08.748Z,7.00
2018-12-22T20:52:37.375Z,7.10
2018-12-22T20:55:06.087Z,7.10
2018-12-22T20:57:34.760Z,7.20
2018-12-22T21:00:03.613Z,7.20
2018-12-22T21:02:32.303Z,7.20
2018-12-22T21:05:00.922Z,7.30
2018-12-22T21:07:29.563Z,7.30
2018-12-22T21:09:58.215Z,7.30
2018-12-22T21:12:26.783Z,7.30
2018-12-22T21:14:55.423Z,7.30
2018-12-22T21:17:24.035Z,7.40
2018-12-22T21:19:52.627Z,7.40
2018-12-22T21:22:21.201Z,7.40
2018-12-22T21:24:49.837Z,7.40
2018-12-22T21:27:18.501Z,7.40
2018-12-22T21:29:47.203Z,7.40
2018-12-22T21:32:15.777Z,7.40
2018-12-22T21:34:44.421Z,7.40
2018-12-22T21:37:13.010Z,7.50
2018-12-22T21:39:41.682Z,7.50
2018-12-22T21:42:10.360Z,7.50
2018-12-22T21:44:38.987Z,7.50
2018-12-22T21:47:07.721Z,7.50
2018-12-22T21:49:36.334Z,7.40
2018-12-22T21:52:04.915Z,7.40
2018-12-22T21:54:33.644Z,7.30
2018-12-22T21:57:02.346Z,7.20
2018-12-22T21:59:30.973Z,7.20
2018-12-22T22:01:59.558Z,7.20
2018-12-22T22:04:36.862Z,7.20
2018-12-22T22:06:58.806Z,7.20
2018-12-22T22:09:27.350Z,7.20
2018-12-22T22:11:55.947Z,7.20
2018-12-22T22:14:24.557Z,7.20
2018-12-22T22:16:53.156Z,7.20
2018-12-22T22:19:21.797Z,7.20
2018-12-22T22:21:50.382Z,7.20
2018-12-22T22:24:18.959Z,7.20
2018-12-22T22:26:47.585Z,7.20
2018-12-22T22:29:16.477Z,7.10
2018-12-22T22:31:45.060Z,7.10
2018-12-22T22:34:13.636Z,7.10
2018-12-22T22:36:42.237Z,7.10
2018-12-22T22:39:10.854Z,7.20
2018-12-22T22:41:39.418Z,7.20
2018-12-22T22:44:08.008Z,7.20
2018-12-22T22:46:36.691Z,7.20
2018-12-22T22:49:05.350Z,7.20
2018-12-22T22:51:33.977Z,7.20
2018-12-22T22:54:02.605Z,7.20
2018-12-22T22:56:31.185Z,7.10
2018-12-22T22:58:59.810Z,7.10
2018-12-22T23:01:28.431Z,7.10
2018-12-22T23:03:57.106Z,7.10
2018-12-22T23:06:25.683Z,7.00
2018-12-22T23:08:54.339Z,7.00
2018-12-22T23:11:22.966Z,6.90
2018-12-22T23:13:51.694Z,6.90
2018-12-22T23:16:20.271Z,6.90
2018-12-22T23:18:48.855Z,6.90
2018-12-22T23:21:17.486Z,6.90
2018-12-22T23:23:46.088Z,6.90
2018-12-22T23:26:14.697Z,6.90
2018-12-22T23:28:43.285Z,6.80
2018-12-22T23:31:11.893Z,6.80
2018-12-22T23:33:40.549Z,6.80
2018-12-22T23:36:09.141Z,6.90
2018-12-22T23:38:37.744Z,6.80
2018-12-22T23:41:06.362Z,6.90
2018-12-22T23:43:34.962Z,6.90
2018-12-22T23:46:03.576Z,6.90
2018-12-22T23:48:32.197Z,6.90
2018-12-22T23:51:00.844Z,6.90
2018-12-22T23:53:29.463Z,6.90
2018-12-22T23:55:58.038Z,6.90
2018-12-22T23:58:26.663Z,7.00
